createdAt,value
2023-03-26T00:01:46.767Z,8.48
2023-03-26T00:04:50.081Z,8.44
2023-03-26T00:07:43.214Z,8.54
2023-03-26T00:10:47.148Z,8.58
2023-03-26T00:13:39.023Z,8.69
2023-03-26T00:16:42.914Z,8.49
2023-03-26T00:19:34.221Z,8.58
2023-03-26T00:22:37.776Z,8.47
2023-03-26T00:25:51.331Z,8.64
2023-03-26T00:28:57.978Z,8.59
2023-03-26T00:31:49.521Z,8.54
2023-03-26T00:34:52.525Z,8.46
2023-03-26T00:38:15.105Z,8.56
2023-03-26T00:41:23.212Z,8.52
2023-03-26T00:44:14.442Z,8.55
2023-03-26T00:47:16.939Z,8.44
2023-03-26T00:50:15.607Z,8.28
2023-03-26T00:53:20.134Z,8.34
2023-03-26T00:56:11.990Z,8.60
2023-03-26T00:59:15.765Z,8.66
2023-03-26T01:02:17.414Z,8.64
2023-03-26T01:05:45.589Z,8.47
2023-03-26T01:08:47.190Z,8.61
2023-03-26T01:11:50.602Z,8.46
2023-03-26T01:14:41.764Z,8.44
2023-03-26T01:17:45.574Z,8.47
2023-03-26T01:20:47.041Z,8.46
2023-03-26T01:24:05.495Z,8.61
2023-03-26T01:27:21.231Z,8.38
2023-03-26T01:30:41.641Z,8.62
2023-03-26T01:33:54.983Z,8.61
2023-03-26T01:37:13.698Z,8.58
2023-03-26T01:40:15.976Z,8.64
2023-03-26T01:43:29.291Z,8.44
2023-03-26T01:46:28.008Z,8.52
2023-03-26T01:49:31.862Z,8.38
2023-03-26T01:52:26.416Z,8.37
2023-03-26T01:55:56.359Z,8.42
2023-03-26T01:59:04.829Z,8.24
2023-03-26T02:02:11.376Z,8.27
2023-03-26T02:05:14.112Z,8.25
2023-03-26T02:08:35.854Z,8.18
2023-03-26T02:11:40.943Z,7.97
2023-03-26T02:14:44.715Z,7.93
2023-03-26T02:17:36.474Z,7.74
2023-03-26T02:20:41.833Z,7.76
2023-03-26T02:23:35.953Z,7.86
2023-03-26T02:26:39.246Z,7.92
2023-03-26T02:29:29.860Z,7.86
2023-03-26T02:32:33.434Z,7.98
2023-03-26T02:35:36.164Z,7.97
2023-03-26T02:38:42.355Z,7.98
2023-03-26T02:41:44.313Z,7.95
2023-03-26T02:44:47.349Z,7.86
2023-03-26T02:47:51.193Z,7.80
2023-03-26T02:50:56.994Z,7.50
2023-03-26T02:53:59.613Z,7.59
2023-03-26T02:57:02.619Z,7.47
2023-03-26T03:00:15.237Z,7.43
2023-03-26T03:03:27.213Z,7.37
2023-03-26T03:06:31.097Z,7.24
2023-03-26T03:09:35.276Z,7.06
2023-03-26T03:12:38.520Z,7.20
2023-03-26T03:15:57.076Z,7.16
2023-03-26T03:18:59.727Z,7.16
2023-03-26T03:22:05.414Z,6.97
2023-03-26T03:25:14.431Z,7.01
2023-03-26T03:28:18.658Z,7.03
2023-03-26T03:31:13.536Z,7.03
2023-03-26T03:34:16.755Z,6.93
2023-03-26T03:37:20.081Z,6.89
2023-03-26T03:40:22.346Z,6.76
2023-03-26T03:43:24.321Z,6.76
2023-03-26T03:46:27.477Z,6.62
2023-03-26T03:49:31.481Z,6.74
2023-03-26T03:52:34.405Z,6.71
2023-03-26T03:55:42.183Z,6.62
2023-03-26T03:58:46.406Z,6.53
2023-03-26T04:01:50.912Z,6.73
2023-03-26T04:04:54.957Z,6.62
2023-03-26T04:08:00.269Z,6.73
2023-03-26T04:11:03.844Z,6.75
2023-03-26T04:14:06.337Z,6.50
2023-03-26T04:17:09.397Z,6.62
2023-03-26T04:20:15.970Z,6.54
2023-03-26T04:23:20.161Z,6.36
2023-03-26T04:26:22.926Z,6.39
2023-03-26T04:29:44.747Z,6.26
2023-03-26T04:32:49.975Z,6.31
2023-03-26T04:36:02.531Z,6.24
2023-03-26T04:39:07.474Z,6.36
2023-03-26T04:42:11.510Z,6.34
2023-03-26T04:45:16.323Z,6.36
2023-03-26T04:48:20.572Z,6.37
2023-03-26T04:51:27.981Z,6.40
2023-03-26T04:54:31.350Z,6.47
2023-03-26T04:57:37.455Z,6.56
2023-03-26T05:00:42.183Z,6.64
2023-03-26T05:03:45.866Z,6.75
2023-03-26T05:06:49.470Z,6.92
2023-03-26T05:09:51.378Z,7.09
2023-03-26T05:12:55.777Z,7.22
2023-03-26T05:15:58.520Z,7.39
2023-03-26T05:19:00.386Z,7.55
2023-03-26T05:22:02.643Z,7.65
2023-03-26T05:25:07.492Z,7.77
2023-03-26T05:28:11.179Z,7.98
2023-03-26T05:31:15.726Z,8.16
2023-03-26T05:34:20.726Z,8.26
2023-03-26T05:37:26.270Z,8.30
2023-03-26T05:40:28.452Z,8.36
2023-03-26T05:43:31.522Z,8.54
2023-03-26T05:46:33.427Z,8.62
2023-03-26T05:49:36.522Z,8.76
2023-03-26T05:52:39.930Z,8.84
2023-03-26T05:55:46.836Z,8.83
2023-03-26T05:58:52.105Z,8.99
2023-03-26T06:01:56.550Z,9.07
2023-03-26T06:05:01.475Z,9.27
2023-03-26T06:08:08.790Z,9.43
2023-03-26T06:11:12.906Z,9.56
2023-03-26T06:14:15.515Z,9.76
2023-03-26T06:17:24.479Z,9.80
2023-03-26T06:20:29.407Z,9.84
2023-03-26T06:23:33.548Z,9.97
2023-03-26T06:26:35.938Z,10.17
2023-03-26T06:29:43.504Z,10.22
2023-03-26T06:32:47.237Z,10.23
2023-03-26T06:35:50.881Z,10.31
2023-03-26T06:38:41.943Z,10.58
2023-03-26T06:41:45.548Z,10.65
2023-03-26T06:44:48.631Z,10.86
2023-03-26T06:47:55.633Z,10.67
2023-03-26T06:50:59.140Z,10.78
2023-03-26T06:54:02.207Z,10.92
2023-03-26T06:56:53.196Z,11.08
2023-03-26T06:59:59.181Z,11.15
2023-03-26T07:03:05.277Z,11.29
2023-03-26T07:06:20.489Z,11.55
2023-03-26T07:09:25.647Z,11.94
2023-03-26T07:12:30.520Z,12.16
2023-03-26T07:15:33.225Z,12.32
2023-03-26T07:18:36.472Z,12.45
2023-03-26T07:21:40.418Z,12.69
2023-03-26T07:24:44.614Z,13.22
2023-03-26T07:28:21.800Z,13.56
2023-03-26T07:31:39.344Z,14.05
2023-03-26T07:34:53.285Z,14.53
2023-03-26T07:38:27.294Z,14.63
2023-03-26T07:41:43.399Z,14.71
2023-03-26T07:45:34.014Z,15.16
2023-03-26T07:48:48.091Z,15.57
2023-03-26T07:51:52.411Z,14.88
2023-03-26T07:54:55.738Z,14.70
2023-03-26T07:58:23.924Z,14.90
2023-03-26T08:01:47.872Z,14.52
2023-03-26T08:04:51.556Z,14.66
2023-03-26T08:08:23.116Z,14.54
2023-03-26T08:11:16.326Z,14.09
2023-03-26T08:14:36.502Z,13.54
2023-03-26T08:17:42.937Z,13.08
2023-03-26T08:20:51.366Z,12.97
2023-03-26T08:24:16.487Z,12.80
2023-03-26T08:27:40.084Z,12.60
2023-03-26T08:30:31.754Z,12.57
2023-03-26T08:33:27.681Z,12.26
2023-03-26T08:36:31.363Z,12.29
2023-03-26T08:39:22.438Z,12.38
2023-03-26T08:42:50.558Z,12.71
2023-03-26T08:46:02.301Z,12.48
2023-03-26T08:49:21.623Z,12.57
2023-03-26T08:52:30.868Z,12.92
2023-03-26T08:55:36.625Z,13.59
2023-03-26T08:58:34.062Z,13.90
2023-03-26T09:02:22.288Z,13.87
2023-03-26T09:05:19.007Z,13.76
2023-03-26T09:08:54.496Z,13.48
2023-03-26T09:12:04.805Z,13.64
2023-03-26T09:15:42.594Z,13.76
2023-03-26T09:19:03.987Z,13.91
2023-03-26T09:22:22.607Z,13.70
2023-03-26T09:25:23.816Z,13.54
2023-03-26T09:29:10.752Z,13.51
2023-03-26T09:32:20.704Z,13.04
2023-03-26T09:35:42.951Z,13.02
2023-03-26T09:38:44.790Z,12.97
2023-03-26T09:42:22.109Z,12.99
2023-03-26T09:45:06.464Z,12.84
2023-03-26T09:48:54.378Z,12.80
2023-03-26T09:52:06.226Z,12.77
2023-03-26T09:55:44.229Z,12.87
2023-03-26T09:59:13.550Z,12.84
2023-03-26T10:02:45.363Z,13.36
2023-03-26T10:06:13.883Z,14.19
2023-03-26T10:09:28.709Z,15.27
2023-03-26T10:12:46.128Z,15.72
2023-03-26T10:16:10.795Z,16.71
2023-03-26T10:19:48.335Z,17.21
2023-03-26T10:22:57.002Z,16.83
2023-03-26T10:26:16.724Z,17.33
2023-03-26T10:29:39.205Z,17.75
2023-03-26T10:33:25.084Z,17.82
2023-03-26T10:37:00.809Z,17.30
2023-03-26T10:40:22.481Z,17.48
2023-03-26T10:43:38.435Z,17.65
2023-03-26T10:46:58.647Z,18.01
2023-03-26T10:50:30.662Z,17.14
2023-03-26T10:53:54.718Z,16.32
2023-03-26T10:57:18.672Z,17.24
2023-03-26T11:00:25.701Z,17.21
2023-03-26T11:03:53.260Z,15.97
2023-03-26T11:07:45.628Z,16.29
2023-03-26T11:14:04.984Z,15.82
2023-03-26T11:17:14.691Z,16.32
2023-03-26T11:20:13.599Z,16.17
2023-03-26T11:22:54.074Z,16.17
2023-03-26T11:25:44.185Z,15.81
2023-03-26T11:28:42.133Z,15.81
2023-03-26T11:31:39.492Z,15.54
2023-03-26T11:34:19.335Z,15.07
2023-03-26T11:36:54.513Z,14.97
2023-03-26T11:39:37.807Z,15.08
2023-03-26T11:42:14.668Z,15.16
2023-03-26T11:45:22.868Z,15.27
2023-03-26T11:47:56.513Z,15.21
2023-03-26T11:50:30.035Z,15.20
2023-03-26T11:53:03.485Z,15.17
2023-03-26T11:55:32.840Z,15.24
2023-03-26T11:58:06.318Z,15.31
2023-03-26T12:00:35.988Z,15.16
2023-03-26T12:03:15.736Z,15.22
2023-03-26T12:05:50.094Z,15.05
2023-03-26T12:08:31.330Z,15.10
2023-03-26T12:11:05.791Z,15.05
2023-03-26T12:13:51.315Z,15.03
2023-03-26T12:16:20.816Z,15.06
2023-03-26T12:19:06.378Z,15.14
2023-03-26T12:21:46.931Z,15.20
2023-03-26T12:24:29.856Z,15.62
2023-03-26T12:27:20.588Z,15.72
2023-03-26T12:30:00.233Z,15.74
2023-03-26T12:32:46.221Z,15.69
2023-03-26T12:35:22.992Z,15.81
2023-03-26T12:37:51.660Z,16.16
2023-03-26T12:40:31.150Z,16.23
2023-03-26T12:44:50.183Z,15.96
2023-03-26T12:47:55.252Z,16.28
2023-03-26T12:48:44.232Z,16.38
2023-03-26T12:51:40.413Z,16.20
2023-03-26T12:54:27.171Z,15.83
2023-03-26T12:57:21.035Z,15.55
2023-03-26T12:59:50.405Z,15.70
2023-03-26T13:02:42.170Z,15.38
2023-03-26T13:05:39.441Z,15.36
2023-03-26T13:08:35.265Z,15.35
2023-03-26T13:11:32.628Z,15.40
2023-03-26T13:14:23.054Z,15.47
2023-03-26T13:17:10.152Z,15.57
2023-03-26T13:19:53.817Z,15.61
2023-03-26T13:22:50.634Z,15.59
2023-03-26T13:25:33.500Z,15.54
2023-03-26T13:28:27.041Z,15.70
2023-03-26T13:31:22.684Z,16.28
2023-03-26T13:33:53.449Z,16.47
2023-03-26T13:36:54.757Z,16.64
2023-03-26T13:39:45.596Z,16.66
2023-03-26T13:42:18.552Z,16.41
2023-03-26T13:44:52.834Z,16.02
2023-03-26T13:47:42.271Z,15.87
2023-03-26T13:50:17.668Z,15.77
2023-03-26T13:53:18.281Z,15.67
2023-03-26T13:55:53.984Z,15.58
2023-03-26T13:58:38.813Z,15.51
2023-03-26T14:01:11.055Z,15.44
2023-03-26T14:04:01.881Z,15.50
2023-03-26T14:06:54.022Z,15.50
2023-03-26T14:09:38.375Z,15.76
2023-03-26T14:12:21.296Z,16.18
2023-03-26T14:15:14.037Z,16.36
2023-03-26T14:17:47.485Z,16.42
2023-03-26T14:20:22.808Z,16.53
2023-03-26T14:23:20.599Z,16.34
2023-03-26T14:26:26.752Z,16.52
2023-03-26T14:29:33.116Z,16.59
2023-03-26T14:32:36.491Z,16.60
2023-03-26T14:35:31.582Z,16.53
2023-03-26T14:38:08.206Z,16.51
2023-03-26T14:40:58.489Z,16.30
2023-03-26T14:44:05.356Z,16.51
2023-03-26T14:47:14.524Z,16.69
2023-03-26T14:50:04.491Z,16.58
2023-03-26T14:52:50.768Z,16.51
2023-03-26T14:55:44.148Z,16.55
2023-03-26T14:58:59.176Z,16.60
2023-03-26T15:01:29.518Z,16.43
2023-03-26T15:04:21.069Z,16.33
2023-03-26T15:07:22.946Z,16.20
2023-03-26T15:10:49.635Z,16.28
2023-03-26T15:13:44.973Z,16.42
2023-03-26T15:16:50.805Z,16.26
2023-03-26T15:19:45.636Z,16.22
2023-03-26T15:22:32.182Z,16.10
2023-03-26T15:25:31.408Z,16.17
2023-03-26T15:28:18.027Z,16.29
2023-03-26T15:31:06.605Z,16.24
2023-03-26T15:34:12.578Z,16.18
2023-03-26T15:37:00.424Z,16.17
2023-03-26T15:39:59.202Z,16.09
2023-03-26T15:42:45.949Z,16.04
2023-03-26T15:45:47.467Z,15.91
2023-03-26T15:48:51.673Z,15.85
2023-03-26T15:51:22.668Z,15.70
2023-03-26T15:54:29.998Z,15.59
2023-03-26T15:57:23.496Z,15.51
2023-03-26T16:00:12.407Z,15.48
2023-03-26T16:03:11.775Z,15.41
2023-03-26T16:06:15.877Z,15.35
2023-03-26T16:09:08.676Z,15.27
2023-03-26T16:11:55.143Z,15.16
2023-03-26T16:14:36.072Z,15.15
2023-03-26T16:17:11.771Z,15.11
2023-03-26T16:19:49.714Z,15.06
2023-03-26T16:22:53.739Z,14.97
2023-03-26T16:25:28.280Z,14.89
2023-03-26T16:28:13.416Z,14.87
2023-03-26T16:30:42.353Z,14.80
2023-03-26T16:33:17.889Z,14.74
2023-03-26T16:36:14.199Z,14.65
2023-03-26T16:39:08.681Z,14.65
2023-03-26T16:41:39.963Z,14.54
2023-03-26T16:44:11.557Z,14.39
2023-03-26T16:46:51.774Z,14.30
2023-03-26T16:49:42.649Z,14.24
2023-03-26T16:52:19.912Z,14.14
2023-03-26T16:54:57.179Z,14.15
2023-03-26T16:57:43.719Z,14.15
2023-03-26T17:00:36.804Z,14.10
2023-03-26T17:03:27.889Z,14.08
2023-03-26T17:05:56.917Z,14.13
2023-03-26T17:08:49.571Z,14.09
2023-03-26T17:11:43.189Z,14.00
2023-03-26T17:14:30.711Z,13.88
2023-03-26T17:17:08.621Z,13.87
2023-03-26T17:19:49.215Z,13.78
2023-03-26T17:22:20.564Z,13.74
2023-03-26T17:25:01.486Z,13.71
2023-03-26T17:27:34.960Z,13.67
2023-03-26T17:30:42.030Z,13.55
2023-03-26T17:33:28.139Z,13.41
2023-03-26T17:36:11.932Z,13.37
2023-03-26T17:38:45.404Z,13.37
2023-03-26T17:41:55.391Z,13.31
2023-03-26T17:44:44.997Z,13.41
2023-03-26T17:47:25.372Z,13.41
2023-03-26T17:50:24.536Z,13.43
2023-03-26T17:53:04.781Z,13.49
2023-03-26T17:55:37.861Z,13.44
2023-03-26T17:58:18.543Z,13.39
2023-03-26T18:00:52.893Z,13.45
2023-03-26T18:03:31.121Z,13.53
2023-03-26T18:06:27.930Z,13.51
2023-03-26T18:09:37.721Z,13.55
2023-03-26T18:12:31.609Z,13.59
2023-03-26T18:15:22.181Z,13.62
2023-03-26T18:18:03.073Z,13.68
2023-03-26T18:20:32.546Z,13.67
2023-03-26T18:23:10.174Z,13.67
2023-03-26T18:25:40.999Z,13.59
2023-03-26T18:28:14.418Z,13.61
2023-03-26T18:30:47.337Z,13.56
2023-03-26T18:33:16.438Z,13.53
2023-03-26T18:35:52.045Z,13.56
2023-03-26T18:38:34.939Z,13.63
2023-03-26T18:41:12.369Z,13.66
2023-03-26T18:43:44.192Z,13.66
2023-03-26T18:46:14.838Z,13.66
2023-03-26T18:48:44.435Z,13.61
2023-03-26T18:51:13.501Z,13.55
2023-03-26T18:53:54.708Z,13.47
2023-03-26T18:56:37.163Z,13.40
2023-03-26T18:59:32.192Z,13.30
2023-03-26T19:02:11.648Z,13.26
2023-03-26T19:04:46.655Z,13.26
2023-03-26T19:07:25.860Z,13.14
2023-03-26T19:09:56.845Z,13.11
2023-03-26T19:12:37.361Z,13.08
2023-03-26T19:15:12.342Z,13.04
2023-03-26T19:17:47.202Z,13.04
2023-03-26T19:20:41.383Z,13.03
2023-03-26T19:23:15.409Z,13.03
2023-03-26T19:25:50.037Z,12.93
2023-03-26T19:28:29.763Z,12.86
2023-03-26T19:31:07.335Z,12.89
2023-03-26T19:33:40.147Z,12.80
2023-03-26T19:36:14.627Z,12.76
2023-03-26T19:38:44.801Z,12.67
2023-03-26T19:41:39.516Z,12.63
2023-03-26T19:44:16.871Z,12.58
2023-03-26T19:46:53.539Z,12.58
2023-03-26T19:49:33.349Z,12.53
2023-03-26T19:52:13.330Z,12.52
2023-03-26T19:54:59.059Z,12.53
2023-03-26T19:57:31.349Z,12.49
2023-03-26T20:00:09.293Z,12.51
2023-03-26T20:02:38.828Z,12.47
2023-03-26T20:05:23.102Z,12.44
2023-03-26T20:07:55.723Z,12.44
2023-03-26T20:10:24.372Z,12.44
2023-03-26T20:12:53.154Z,12.46
2023-03-26T20:15:23.415Z,12.44
2023-03-26T20:17:54.648Z,12.45
2023-03-26T20:20:25.463Z,12.42
2023-03-26T20:22:54.838Z,12.35
2023-03-26T20:25:30.230Z,12.32
2023-03-26T20:27:59.765Z,12.30
2023-03-26T20:30:37.602Z,12.28
2023-03-26T20:33:12.772Z,12.23
2023-03-26T20:35:42.932Z,12.24
2023-03-26T20:38:12.025Z,12.18
2023-03-26T20:40:41.167Z,12.24
2023-03-26T20:43:13.016Z,12.29
2023-03-26T20:45:41.706Z,12.27
2023-03-26T20:48:10.555Z,12.23
2023-03-26T20:50:50.823Z,12.13
2023-03-26T20:53:20.443Z,12.13
2023-03-26T20:55:51.081Z,12.07
2023-03-26T20:58:31.758Z,11.99
2023-03-26T21:01:02.439Z,11.96
2023-03-26T21:03:31.153Z,11.88
2023-03-26T21:06:04.022Z,11.83
2023-03-26T21:08:35.797Z,11.80
2023-03-26T21:11:05.788Z,11.81
2023-03-26T21:13:37.349Z,12.02
2023-03-26T21:16:06.686Z,11.83
2023-03-26T21:18:35.230Z,11.77
2023-03-26T21:21:39.226Z,11.77
2023-03-26T21:24:30.373Z,11.76
2023-03-26T21:27:10.927Z,11.83
2023-03-26T21:29:39.672Z,11.89
2023-03-26T21:32:12.449Z,11.82
2023-03-26T21:34:47.870Z,11.64
2023-03-26T21:37:24.371Z,11.53
2023-03-26T21:39:53.515Z,11.33
2023-03-26T21:42:22.024Z,11.21
2023-03-26T21:44:50.801Z,10.80
2023-03-26T21:47:19.504Z,10.79
2023-03-26T21:49:49.196Z,10.74
2023-03-26T21:52:17.769Z,10.45
2023-03-26T21:54:46.654Z,10.47
2023-03-26T21:57:33.995Z,10.42
2023-03-26T22:00:18.524Z,10.40
2023-03-26T22:03:01.689Z,10.34
2023-03-26T22:05:42.569Z,10.38
2023-03-26T22:08:24.634Z,10.34
2023-03-26T22:10:52.908Z,10.43
2023-03-26T22:13:21.461Z,10.43
2023-03-26T22:15:50.290Z,10.50
2023-03-26T22:18:21.488Z,10.55
2023-03-26T22:20:50.300Z,10.51
2023-03-26T22:23:19.186Z,10.51
2023-03-26T22:25:47.346Z,10.48
2023-03-26T22:28:16.083Z,10.46
2023-03-26T22:30:44.079Z,10.47
2023-03-26T22:33:12.258Z,10.40
2023-03-26T22:35:44.681Z,10.25
2023-03-26T22:38:13.099Z,10.22
2023-03-26T22:40:41.976Z,10.26
2023-03-26T22:43:10.125Z,10.18
2023-03-26T22:45:38.234Z,10.09
2023-03-26T22:48:06.729Z,10.08
2023-03-26T22:50:35.318Z,10.08
2023-03-26T22:53:03.806Z,10.04
2023-03-26T22:55:32.374Z,10.01
2023-03-26T22:58:00.564Z,9.95
2023-03-26T23:00:28.997Z,9.97
2023-03-26T23:03:00.729Z,9.90
2023-03-26T23:05:29.617Z,9.79
2023-03-26T23:07:58.477Z,9.57
2023-03-26T23:10:26.905Z,9.63
2023-03-26T23:12:55.424Z,9.46
2023-03-26T23:15:25.958Z,9.40
2023-03-26T23:17:55.372Z,9.38
2023-03-26T23:20:23.943Z,9.29
2023-03-26T23:22:52.648Z,9.28
2023-03-26T23:25:21.340Z,9.18
2023-03-26T23:27:50.648Z,9.19
2023-03-26T23:30:19.245Z,9.29
2023-03-26T23:32:47.837Z,9.34
2023-03-26T23:35:22.186Z,9.37
2023-03-26T23:37:50.943Z,9.33
2023-03-26T23:40:19.714Z,9.37
2023-03-26T23:42:48.220Z,9.33
2023-03-26T23:45:16.474Z,9.36
2023-03-26T23:47:44.914Z,9.34
2023-03-26T23:50:14.589Z,9.39
2023-03-26T23:52:45.481Z,9.35
2023-03-26T23:55:13.858Z,9.34
2023-03-26T23:57:43.316Z,9.30
